This is the latest recevied weather packets stored in our database for station/object eb1ayw-13. If no packets are shown the sender has not sent any weather packets the latest 10 day(s).
| Time | Temp. | Humidity | Pressure | Rain* | Wind** | Luminosity | Snow |
|---|---|---|---|---|---|---|---|
| 1777844268 | 36.11° C | 21% | 1003.6 hPa | - | - | - | - |
| 1777843668 | 37.22° C | 19% | 1003.4 hPa | - | - | - | - |
| 1777843068 | 35° C | 21% | 1003.9 hPa | - | - | - | - |
| 1777842468 | 39.44° C | 19% | 1002.7 hPa | - | - | - | - |
| 1777841868 | 37.78° C | 20% | 1003.1 hPa | - | - | - | - |
| 1777841268 | 38.33° C | 20% | 1002.7 hPa | - | - | - | - |
| 1777840668 | 40.56° C | 18% | 1002.2 hPa | - | - | - | - |
| 1777840068 | 36.67° C | 22% | 1003 hPa | - | - | - | - |
| 1777839468 | 35° C | 24% | 1003.1 hPa | - | - | - | - |
| 1777837668 | 36.67° C | 21% | 1002.2 hPa | - | - | - | - |
| 1777836468 | 36.11° C | 20% | 1002.3 hPa | - | - | - | - |
| 1777835268 | 38.33° C | 19% | 1001.3 hPa | - | - | - | - |
| 1777833468 | 37.22° C | 20% | 1001.5 hPa | - | - | - | - |
| 1777832868 | 41.67° C | 16% | 1000.4 hPa | - | - | - | - |
| 1777832268 | 38.89° C | 19% | 1000.9 hPa | - | - | - | - |
| 1777831668 | 35° C | 22% | 1002 hPa | - | - | - | - |
| 1777828668 | 40.56° C | 18% | 1000.2 hPa | - | - | - | - |
| 1777828068 | 36.67° C | 21% | 1001.4 hPa | - | - | - | - |
| 1777826868 | 37.78° C | 20% | 1000.8 hPa | - | - | - | - |
| 1777826268 | 38.33° C | 19% | 1000.7 hPa | - | - | - | - |
| 1777825668 | 36.67° C | 21% | 1001.1 hPa | - | - | - | - |
| 1777824468 | 40.56° C | 18% | 999.8 hPa | - | - | - | - |
| 1777823868 | 38.33° C | 19% | 1000.5 hPa | - | - | - | - |
| 1777822668 | 45° C | 13% | 998.1 hPa | - | - | - | - |
| 1777822068 | 42.78° C | 13% | 998.5 hPa | - | - | - | - |
* Rain since midnight (hover to see other rain measurements)
** Current wind speed in m/s (hover to see current wind gust speed)